Accueil
METAR-TAF:

METAR-TAF

Aéroports :

Powell River, Colombie-Britannique, Canada

latitude: 49-50N, longitude: 124-30W, altitude: 130 m

Observation

Le bulletin a été fait il y a 8 heures et 19 minutes, à 03:00 UTC
Vent calme
Température 4°C
Humidité 100%
Pression 1028 hPa
Visibilité: 32.2 km
Nuages fragmentés à une hauteur de 11000 ft

METAR: CYPW 110300Z 00000KT 20SM BKN110 04/04 A3035 RMK AC6 LAST STFD OBS/NEXT111500UTC SLP285

Heure: 03:19 (11:19 UTC)


TAF: absent

Observations et prévisions météorologiques de plus de 4000 aéroports (messages METAR et TAF).

Les stations disponibles sont représentées par des disques jaunes et rouges sur la carte.

Passer la souris dessus pour voir le nom de la station.

Cliquer dessus pour voir les observations et prévisions météorologiques.

Pour changer de carte: cliquez sur les boutons verts avec une croix noire pour zoomer, sur le bouton vert avec un tiret pour effectuer un zoom arrière, ou sur les flèches vertes pour les cartes adjacentes.


METAR-TAF: